• Join FlightAware (Why Join?)
  • Login
  • US Flag 
08:52PM EDT


 

Airport Tracker/Info


-or-


 

Live Flight TrackerFlight Track Log ✈ AMX202 ✈ 19-Jul-2013 ✈ MMMX / MEX - MMTC / TRC

Flight Track Log - Related Links

Times and Time Zones

All times are in EDT time to prevent confusion due to time zone crossing. See the AMX202 flight status page for this flight to view local times or setup timezone preferences in your user account.

Time Position Orientation Groundspeed Altitude Reporting Facility
EDT Latitude Longitude Course Direction KTS MPH feet Rate Location/Type
06:01PM 20.3433 -99.6858 328° Northwest  Level Estimated
06:02PM 20.4257 -99.7420 327° Northwest  Level Estimated
06:03PM 20.5080 -99.7982 327° Northwest  Level Estimated
06:04PM 20.5903 -99.8545 327° Northwest  Level Estimated
06:05PM 20.6726 -99.9108 327° Northwest  Level Estimated
06:06PM 20.7549 -99.9672 327° Northwest  Level Estimated
06:07PM 20.8372 -100.0236 327° Northwest  Level Estimated
06:08PM 20.9194 -100.0801 327° Northwest  Level Estimated
06:09PM 21.0016 -100.1367 327° Northwest  Level Estimated
06:10PM 21.0839 -100.1934 327° Northwest  Level Estimated
06:11PM 21.1660 -100.2501 327° Northwest  Level Estimated
06:12PM 21.2482 -100.3068 327° Northwest  Level Estimated
06:13PM 21.3304 -100.3636 327° Northwest  Level Estimated
06:14PM 21.4125 -100.4205 327° Northwest  Level Estimated
06:15PM 21.4946 -100.4775 327° Northwest  Level Estimated
06:16PM 21.5767 -100.5345 327° Northwest  Level Estimated
06:17PM 21.6588 -100.5916 327° Northwest  Level Estimated
06:18PM 21.7408 -100.6487 327° Northwest  Level Estimated
06:19PM 21.8228 -100.7059 327° Northwest  Level Estimated
06:20PM 21.9049 -100.7632 327° Northwest  Level Estimated
06:21PM 21.9868 -100.8206 327° Northwest  Level Estimated
06:22PM 22.0688 -100.8780 327° Northwest  Level Estimated
06:23PM 22.1508 -100.9355 327° Northwest  Level Estimated
06:24PM 22.2327 -100.9930 327° Northwest  Level Estimated
06:25PM 22.3146 -101.0506 327° Northwest  Level Estimated
06:26PM 22.3965 -101.1083 327° Northwest  Level Estimated
06:27PM 22.4784 -101.1660 327° Northwest  Level Estimated
06:28PM 22.5602 -101.2239 327° Northwest  Level Estimated
06:29PM 22.6420 -101.2817 327° Northwest  Level Estimated
06:30PM 22.7239 -101.3397 327° Northwest  Level Estimated
06:31PM 22.8056 -101.3977 327° Northwest  Level Estimated
06:32PM 22.8874 -101.4558 327° Northwest  Level Estimated
06:33PM 22.9692 -101.5140 327° Northwest  Level Estimated
06:34PM 23.0509 -101.5722 327° Northwest  Level Estimated
06:35PM 23.1326 -101.6305 327° Northwest  Level Estimated
06:36PM 23.2143 -101.6889 327° Northwest  Level Estimated
06:37PM 23.2959 -101.7473 327° Northwest  Level Estimated
06:38PM 23.3776 -101.8058 327° Northwest  Level Estimated
06:39PM 23.4592 -101.8644 327° Northwest  Level Estimated
06:40PM 23.5408 -101.9231 327° Northwest  Level Estimated
06:41PM 23.6224 -101.9818 327° Northwest  Level Estimated
06:42PM 23.7039 -102.0406 327° Northwest  Level Estimated
06:43PM 23.7854 -102.0995 327° Northwest  Level Estimated
06:44PM 23.8669 -102.1585 327° Northwest  Level Estimated
06:45PM 23.9484 -102.2175 326° Northwest  Level Estimated
06:46PM 24.0299 -102.2766 326° Northwest  Level Estimated
06:47PM 24.1113 -102.3358 326° Northwest  Level Estimated
06:48PM 24.1927 -102.3951 326° Northwest  Level Estimated
06:49PM 24.2741 -102.4544 326° Northwest  Level Estimated
06:50PM 24.3555 -102.5138 326° Northwest  Level Estimated
06:51PM 24.4368 -102.5733 326° Northwest  Level Estimated
06:52PM 24.5182 -102.6328 326° Northwest  Level Estimated
06:53PM 24.5995 -102.6925 326° Northwest  Level Estimated
06:54PM 24.6807 -102.7522 326° Northwest  Level Estimated
06:55PM 24.7620 -102.8120 326° Northwest  Level Estimated
06:56PM 24.8432 -102.8718 326° Northwest  Level Estimated
06:57PM 24.9244 -102.9318 326° Northwest  Level Estimated
06:58PM 25.0056 -102.9918 326° Northwest  Level Estimated
06:59PM 25.0868 -103.0519 326° Northwest  Level Estimated
07:00PM 25.1679 -103.1121 326° Northwest  Level Estimated
07:01PM 25.2490 -103.1724 326° Northwest  Level Estimated
07:02PM 25.3301 -103.2327 326° Northwest  Level Estimated
07:03PM 25.4111 -103.2932 326° Northwest  Level Estimated
07:04PM 25.4922 -103.3537 326° Northwest  Level Estimated
07:05PM 25.5683 -103.4106 326° Northwest  Level Estimated
07:06PM 25.5683 -103.4106 234° Southwest  Level Estimated
07:07PM 25.5683 -103.4106 234° Southwest  Level Estimated